sensor_id;sensor_type;location;lat;lon;timestamp;temperature;humidity
18593;DHT22;9426;54.118;17.948;2024-02-28T00:02:10;3.80;99.90
18593;DHT22;9426;54.118;17.948;2024-02-28T00:07:34;3.80;99.90
18593;DHT22;9426;54.118;17.948;2024-02-28T00:12:58;3.80;99.90
18593;DHT22;9426;54.118;17.948;2024-02-28T00:18:23;3.80;99.90
18593;DHT22;9426;54.118;17.948;2024-02-28T00:23:46;3.80;99.90
18593;DHT22;9426;54.118;17.948;2024-02-28T00:29:10;3.80;99.90
18593;DHT22;9426;54.118;17.948;2024-02-28T00:34:35;3.80;99.90
18593;DHT22;9426;54.118;17.948;2024-02-28T00:39:58;3.70;99.90
18593;DHT22;9426;54.118;17.948;2024-02-28T00:45:22;3.70;99.90
18593;DHT22;9426;54.118;17.948;2024-02-28T00:50:47;3.70;99.90
18593;DHT22;9426;54.118;17.948;2024-02-28T00:56:10;3.70;99.90
18593;DHT22;9426;54.118;17.948;2024-02-28T01:01:33;3.60;99.90
18593;DHT22;9426;54.118;17.948;2024-02-28T01:06:58;3.60;99.90
18593;DHT22;9426;54.118;17.948;2024-02-28T01:12:21;3.60;99.90
18593;DHT22;9426;54.118;17.948;2024-02-28T01:17:45;3.60;99.90
18593;DHT22;9426;54.118;17.948;2024-02-28T01:23:10;3.60;99.90
18593;DHT22;9426;54.118;17.948;2024-02-28T01:28:33;3.60;99.90
18593;DHT22;9426;54.118;17.948;2024-02-28T01:33:57;3.60;99.90
18593;DHT22;9426;54.118;17.948;2024-02-28T01:39:22;3.70;99.90
18593;DHT22;9426;54.118;17.948;2024-02-28T01:44:47;3.70;99.90
18593;DHT22;9426;54.118;17.948;2024-02-28T01:50:11;3.70;99.90
18593;DHT22;9426;54.118;17.948;2024-02-28T01:55:36;3.70;99.90
18593;DHT22;9426;54.118;17.948;2024-02-28T02:01:01;3.70;99.90
18593;DHT22;9426;54.118;17.948;2024-02-28T02:06:28;3.80;99.90
18593;DHT22;9426;54.118;17.948;2024-02-28T02:11:52;3.80;99.90
18593;DHT22;9426;54.118;17.948;2024-02-28T02:17:16;3.70;99.90
18593;DHT22;9426;54.118;17.948;2024-02-28T02:22:41;3.60;99.90
18593;DHT22;9426;54.118;17.948;2024-02-28T02:28:04;3.60;99.90
18593;DHT22;9426;54.118;17.948;2024-02-28T02:33:28;3.70;99.90
18593;DHT22;9426;54.118;17.948;2024-02-28T02:38:53;3.60;99.90
18593;DHT22;9426;54.118;17.948;2024-02-28T02:44:16;3.60;99.90
18593;DHT22;9426;54.118;17.948;2024-02-28T02:49:40;3.60;99.90
18593;DHT22;9426;54.118;17.948;2024-02-28T02:55:05;3.60;99.90
18593;DHT22;9426;54.118;17.948;2024-02-28T03:00:29;3.60;99.90
18593;DHT22;9426;54.118;17.948;2024-02-28T03:05:53;3.60;99.90
18593;DHT22;9426;54.118;17.948;2024-02-28T03:11:17;3.60;99.90
18593;DHT22;9426;54.118;17.948;2024-02-28T03:16:42;3.60;99.90
18593;DHT22;9426;54.118;17.948;2024-02-28T03:22:08;3.60;99.90
18593;DHT22;9426;54.118;17.948;2024-02-28T03:27:34;3.60;99.90
18593;DHT22;9426;54.118;17.948;2024-02-28T03:32:57;3.60;99.90
18593;DHT22;9426;54.118;17.948;2024-02-28T03:38:23;3.50;99.90
18593;DHT22;9426;54.118;17.948;2024-02-28T03:43:48;3.60;99.90
18593;DHT22;9426;54.118;17.948;2024-02-28T03:49:11;3.50;99.90
18593;DHT22;9426;54.118;17.948;2024-02-28T03:54:36;3.60;99.90
18593;DHT22;9426;54.118;17.948;2024-02-28T04:00:03;3.60;99.90
18593;DHT22;9426;54.118;17.948;2024-02-28T04:05:33;3.60;99.90
18593;DHT22;9426;54.118;17.948;2024-02-28T04:10:57;3.60;99.90
18593;DHT22;9426;54.118;17.948;2024-02-28T04:16:21;3.60;99.90
18593;DHT22;9426;54.118;17.948;2024-02-28T04:21:45;3.50;99.90
18593;DHT22;9426;54.118;17.948;2024-02-28T04:27:08;3.50;99.90
18593;DHT22;9426;54.118;17.948;2024-02-28T04:32:37;3.50;99.90
18593;DHT22;9426;54.118;17.948;2024-02-28T04:38:03;3.50;99.90
18593;DHT22;9426;54.118;17.948;2024-02-28T04:43:27;3.40;99.90
18593;DHT22;9426;54.118;17.948;2024-02-28T04:48:51;3.50;99.90
18593;DHT22;9426;54.118;17.948;2024-02-28T04:54:15;3.40;99.90
18593;DHT22;9426;54.118;17.948;2024-02-28T04:59:38;3.40;99.90
18593;DHT22;9426;54.118;17.948;2024-02-28T05:05:03;3.40;99.90
18593;DHT22;9426;54.118;17.948;2024-02-28T05:10:27;3.40;99.90
18593;DHT22;9426;54.118;17.948;2024-02-28T05:15:50;3.50;99.90
18593;DHT22;9426;54.118;17.948;2024-02-28T05:21:15;3.40;99.90
18593;DHT22;9426;54.118;17.948;2024-02-28T05:26:38;3.40;99.90
18593;DHT22;9426;54.118;17.948;2024-02-28T05:32:02;3.40;99.90
18593;DHT22;9426;54.118;17.948;2024-02-28T05:37:27;3.40;99.90
18593;DHT22;9426;54.118;17.948;2024-02-28T05:42:50;3.40;99.90
18593;DHT22;9426;54.118;17.948;2024-02-28T05:48:14;3.40;99.90
18593;DHT22;9426;54.118;17.948;2024-02-28T05:53:39;3.40;99.90
18593;DHT22;9426;54.118;17.948;2024-02-28T05:59:03;3.50;99.90
18593;DHT22;9426;54.118;17.948;2024-02-28T06:04:27;3.50;99.90
18593;DHT22;9426;54.118;17.948;2024-02-28T06:09:52;3.40;99.90
18593;DHT22;9426;54.118;17.948;2024-02-28T06:15:16;3.50;99.90
18593;DHT22;9426;54.118;17.948;2024-02-28T06:20:40;3.50;99.90
18593;DHT22;9426;54.118;17.948;2024-02-28T06:26:06;3.50;99.90
18593;DHT22;9426;54.118;17.948;2024-02-28T06:31:36;3.50;99.90
18593;DHT22;9426;54.118;17.948;2024-02-28T06:37:02;3.60;99.90
18593;DHT22;9426;54.118;17.948;2024-02-28T06:42:28;3.60;99.90
18593;DHT22;9426;54.118;17.948;2024-02-28T06:47:51;3.60;99.90
18593;DHT22;9426;54.118;17.948;2024-02-28T06:53:16;3.70;99.90
18593;DHT22;9426;54.118;17.948;2024-02-28T06:58:41;3.70;99.90
18593;DHT22;9426;54.118;17.948;2024-02-28T07:04:04;3.80;99.90
18593;DHT22;9426;54.118;17.948;2024-02-28T07:09:29;3.80;99.90
18593;DHT22;9426;54.118;17.948;2024-02-28T07:14:56;3.90;99.90
18593;DHT22;9426;54.118;17.948;2024-02-28T07:20:19;3.80;99.90
18593;DHT22;9426;54.118;17.948;2024-02-28T07:25:45;3.90;99.90
18593;DHT22;9426;54.118;17.948;2024-02-28T07:31:16;3.90;99.90
18593;DHT22;9426;54.118;17.948;2024-02-28T07:36:40;3.90;99.90
18593;DHT22;9426;54.118;17.948;2024-02-28T07:42:04;3.90;99.90
18593;DHT22;9426;54.118;17.948;2024-02-28T07:47:29;3.90;99.90
18593;DHT22;9426;54.118;17.948;2024-02-28T07:52:54;4.00;99.90
18593;DHT22;9426;54.118;17.948;2024-02-28T07:58:18;4.00;99.90
18593;DHT22;9426;54.118;17.948;2024-02-28T08:03:42;4.10;99.90
18593;DHT22;9426;54.118;17.948;2024-02-28T08:09:08;4.10;99.90
18593;DHT22;9426;54.118;17.948;2024-02-28T08:14:34;4.00;99.90
18593;DHT22;9426;54.118;17.948;2024-02-28T08:19:59;4.10;99.90
18593;DHT22;9426;54.118;17.948;2024-02-28T08:25:23;4.20;99.90
18593;DHT22;9426;54.118;17.948;2024-02-28T08:30:46;3.90;99.90
18593;DHT22;9426;54.118;17.948;2024-02-28T08:36:11;4.40;99.90
18593;DHT22;9426;54.118;17.948;2024-02-28T08:41:35;4.40;99.90
18593;DHT22;9426;54.118;17.948;2024-02-28T08:46:58;4.30;99.90
18593;DHT22;9426;54.118;17.948;2024-02-28T08:52:23;4.40;99.90
18593;DHT22;9426;54.118;17.948;2024-02-28T08:57:46;4.50;99.90
18593;DHT22;9426;54.118;17.948;2024-02-28T09:03:10;4.60;99.90
18593;DHT22;9426;54.118;17.948;2024-02-28T09:08:35;4.80;99.90
18593;DHT22;9426;54.118;17.948;2024-02-28T09:13:59;4.90;99.90
18593;DHT22;9426;54.118;17.948;2024-02-28T09:19:22;5.10;99.90
18593;DHT22;9426;54.118;17.948;2024-02-28T09:24:47;5.10;99.90
18593;DHT22;9426;54.118;17.948;2024-02-28T09:30:12;5.00;99.90
18593;DHT22;9426;54.118;17.948;2024-02-28T09:35:35;5.10;99.90
18593;DHT22;9426;54.118;17.948;2024-02-28T09:41:00;5.30;99.90
18593;DHT22;9426;54.118;17.948;2024-02-28T09:46:24;5.60;99.90
18593;DHT22;9426;54.118;17.948;2024-02-28T09:51:49;5.70;99.90
18593;DHT22;9426;54.118;17.948;2024-02-28T09:57:15;5.80;99.90
18593;DHT22;9426;54.118;17.948;2024-02-28T10:02:40;5.70;99.90
18593;DHT22;9426;54.118;17.948;2024-02-28T10:08:05;5.70;99.90
18593;DHT22;9426;54.118;17.948;2024-02-28T10:13:32;5.50;99.90
18593;DHT22;9426;54.118;17.948;2024-02-28T10:18:55;5.30;99.90
18593;DHT22;9426;54.118;17.948;2024-02-28T10:24:19;5.30;99.90
18593;DHT22;9426;54.118;17.948;2024-02-28T10:29:45;5.10;99.90
18593;DHT22;9426;54.118;17.948;2024-02-28T10:35:08;5.10;99.90
18593;DHT22;9426;54.118;17.948;2024-02-28T10:40:34;5.30;99.90
18593;DHT22;9426;54.118;17.948;2024-02-28T10:45:58;5.40;99.90
18593;DHT22;9426;54.118;17.948;2024-02-28T10:51:26;5.30;99.90
18593;DHT22;9426;54.118;17.948;2024-02-28T10:56:49;5.20;99.90
18593;DHT22;9426;54.118;17.948;2024-02-28T11:02:19;5.20;99.90
18593;DHT22;9426;54.118;17.948;2024-02-28T11:07:43;5.40;99.90
18593;DHT22;9426;54.118;17.948;2024-02-28T11:13:06;5.40;99.90
18593;DHT22;9426;54.118;17.948;2024-02-28T11:18:34;5.40;99.90
18593;DHT22;9426;54.118;17.948;2024-02-28T11:24:00;5.60;99.90
18593;DHT22;9426;54.118;17.948;2024-02-28T11:29:26;5.70;99.90
18593;DHT22;9426;54.118;17.948;2024-02-28T11:34:52;5.40;99.90
18593;DHT22;9426;54.118;17.948;2024-02-28T11:40:15;5.30;99.90
18593;DHT22;9426;54.118;17.948;2024-02-28T11:45:39;5.20;99.90
18593;DHT22;9426;54.118;17.948;2024-02-28T11:51:07;5.40;99.90
18593;DHT22;9426;54.118;17.948;2024-02-28T11:56:30;5.30;99.90
18593;DHT22;9426;54.118;17.948;2024-02-28T12:01:54;5.30;99.90
18593;DHT22;9426;54.118;17.948;2024-02-28T12:07:19;5.10;99.90
18593;DHT22;9426;54.118;17.948;2024-02-28T12:12:43;5.10;99.90
18593;DHT22;9426;54.118;17.948;2024-02-28T12:18:09;5.20;99.90
18593;DHT22;9426;54.118;17.948;2024-02-28T12:23:34;5.20;99.90
18593;DHT22;9426;54.118;17.948;2024-02-28T12:28:58;5.20;99.90
18593;DHT22;9426;54.118;17.948;2024-02-28T12:34:22;5.10;99.90
18593;DHT22;9426;54.118;17.948;2024-02-28T12:39:47;4.90;99.90
18593;DHT22;9426;54.118;17.948;2024-02-28T12:45:10;4.80;99.90
18593;DHT22;9426;54.118;17.948;2024-02-28T12:50:34;4.80;99.90
18593;DHT22;9426;54.118;17.948;2024-02-28T12:55:59;4.70;99.90
18593;DHT22;9426;54.118;17.948;2024-02-28T13:01:23;4.60;99.90
18593;DHT22;9426;54.118;17.948;2024-02-28T13:06:46;4.60;99.90
18593;DHT22;9426;54.118;17.948;2024-02-28T13:12:11;4.60;99.90
18593;DHT22;9426;54.118;17.948;2024-02-28T13:17:35;4.60;99.90
18593;DHT22;9426;54.118;17.948;2024-02-28T13:22:59;4.50;99.90
18593;DHT22;9426;54.118;17.948;2024-02-28T13:28:25;4.50;99.90
18593;DHT22;9426;54.118;17.948;2024-02-28T13:33:51;4.40;99.90
18593;DHT22;9426;54.118;17.948;2024-02-28T13:39:14;4.30;99.90
18593;DHT22;9426;54.118;17.948;2024-02-28T13:44:39;4.40;99.90
18593;DHT22;9426;54.118;17.948;2024-02-28T13:50:03;4.30;99.90
18593;DHT22;9426;54.118;17.948;2024-02-28T13:55:27;4.30;99.90
18593;DHT22;9426;54.118;17.948;2024-02-28T14:00:52;4.40;99.90
18593;DHT22;9426;54.118;17.948;2024-02-28T14:06:15;4.30;99.90
18593;DHT22;9426;54.118;17.948;2024-02-28T14:11:39;4.30;99.90
18593;DHT22;9426;54.118;17.948;2024-02-28T14:17:04;4.40;99.90
18593;DHT22;9426;54.118;17.948;2024-02-28T14:22:28;4.40;99.90
18593;DHT22;9426;54.118;17.948;2024-02-28T14:27:51;4.40;99.90
18593;DHT22;9426;54.118;17.948;2024-02-28T14:33:17;4.30;99.90
18593;DHT22;9426;54.118;17.948;2024-02-28T14:38:43;4.20;99.90
18593;DHT22;9426;54.118;17.948;2024-02-28T14:44:06;4.20;99.90
18593;DHT22;9426;54.118;17.948;2024-02-28T14:49:31;4.30;99.90
18593;DHT22;9426;54.118;17.948;2024-02-28T14:54:56;4.40;99.90
18593;DHT22;9426;54.118;17.948;2024-02-28T15:00:20;4.40;99.90
18593;DHT22;9426;54.118;17.948;2024-02-28T15:05:45;4.40;99.90
18593;DHT22;9426;54.118;17.948;2024-02-28T15:11:10;4.30;99.90
18593;DHT22;9426;54.118;17.948;2024-02-28T15:16:33;4.30;99.90
18593;DHT22;9426;54.118;17.948;2024-02-28T15:21:58;4.20;99.90
18593;DHT22;9426;54.118;17.948;2024-02-28T15:27:21;4.20;99.90
18593;DHT22;9426;54.118;17.948;2024-02-28T15:32:45;4.10;99.90
18593;DHT22;9426;54.118;17.948;2024-02-28T15:38:10;4.00;99.90
18593;DHT22;9426;54.118;17.948;2024-02-28T15:43:34;3.90;99.90
18593;DHT22;9426;54.118;17.948;2024-02-28T15:48:58;3.80;99.90
18593;DHT22;9426;54.118;17.948;2024-02-28T15:54:24;3.80;99.90
18593;DHT22;9426;54.118;17.948;2024-02-28T15:59:49;4.40;99.90
18593;DHT22;9426;54.118;17.948;2024-02-28T16:05:13;3.80;99.90
18593;DHT22;9426;54.118;17.948;2024-02-28T16:10:38;3.70;99.90
18593;DHT22;9426;54.118;17.948;2024-02-28T16:16:02;3.70;99.90
18593;DHT22;9426;54.118;17.948;2024-02-28T16:21:26;3.70;99.90
18593;DHT22;9426;54.118;17.948;2024-02-28T16:26:51;3.60;99.90
18593;DHT22;9426;54.118;17.948;2024-02-28T16:32:15;3.60;99.90
18593;DHT22;9426;54.118;17.948;2024-02-28T16:37:38;3.50;99.90
18593;DHT22;9426;54.118;17.948;2024-02-28T16:43:03;3.50;99.90
18593;DHT22;9426;54.118;17.948;2024-02-28T16:48:27;3.50;99.90
18593;DHT22;9426;54.118;17.948;2024-02-28T16:53:50;3.50;99.90
18593;DHT22;9426;54.118;17.948;2024-02-28T16:59:16;3.40;99.90
18593;DHT22;9426;54.118;17.948;2024-02-28T17:04:39;3.40;99.90
18593;DHT22;9426;54.118;17.948;2024-02-28T17:10:03;3.40;99.90
18593;DHT22;9426;54.118;17.948;2024-02-28T17:15:28;3.40;99.90
18593;DHT22;9426;54.118;17.948;2024-02-28T17:20:51;3.40;99.90
18593;DHT22;9426;54.118;17.948;2024-02-28T17:26:15;3.40;99.90
18593;DHT22;9426;54.118;17.948;2024-02-28T17:31:40;3.40;99.90
18593;DHT22;9426;54.118;17.948;2024-02-28T17:37:04;3.40;99.90
18593;DHT22;9426;54.118;17.948;2024-02-28T17:42:28;3.40;99.90
18593;DHT22;9426;54.118;17.948;2024-02-28T17:47:53;3.30;99.90
18593;DHT22;9426;54.118;17.948;2024-02-28T17:53:18;3.30;99.90
18593;DHT22;9426;54.118;17.948;2024-02-28T17:58:41;3.30;99.90
18593;DHT22;9426;54.118;17.948;2024-02-28T18:04:07;3.30;99.90
18593;DHT22;9426;54.118;17.948;2024-02-28T18:09:31;3.30;99.90
18593;DHT22;9426;54.118;17.948;2024-02-28T18:14:55;3.20;99.90
18593;DHT22;9426;54.118;17.948;2024-02-28T18:20:20;3.20;99.90
18593;DHT22;9426;54.118;17.948;2024-02-28T18:25:44;3.20;99.90
18593;DHT22;9426;54.118;17.948;2024-02-28T18:31:07;3.30;99.90
18593;DHT22;9426;54.118;17.948;2024-02-28T18:36:35;3.20;99.90
18593;DHT22;9426;54.118;17.948;2024-02-28T18:41:59;3.30;99.90
18593;DHT22;9426;54.118;17.948;2024-02-28T18:47:22;3.20;99.90
18593;DHT22;9426;54.118;17.948;2024-02-28T18:52:49;3.20;99.90
18593;DHT22;9426;54.118;17.948;2024-02-28T18:58:13;3.20;99.90
18593;DHT22;9426;54.118;17.948;2024-02-28T19:03:37;3.20;99.90
18593;DHT22;9426;54.118;17.948;2024-02-28T19:09:02;3.20;99.90
18593;DHT22;9426;54.118;17.948;2024-02-28T19:14:26;3.10;99.90
18593;DHT22;9426;54.118;17.948;2024-02-28T19:19:51;3.10;99.90
18593;DHT22;9426;54.118;17.948;2024-02-28T19:25:17;3.10;99.90
18593;DHT22;9426;54.118;17.948;2024-02-28T19:30:41;3.10;99.90
18593;DHT22;9426;54.118;17.948;2024-02-28T19:36:05;3.20;99.90
18593;DHT22;9426;54.118;17.948;2024-02-28T19:41:31;3.10;99.90
18593;DHT22;9426;54.118;17.948;2024-02-28T19:46:54;3.10;99.90
18593;DHT22;9426;54.118;17.948;2024-02-28T19:52:18;3.10;99.90
18593;DHT22;9426;54.118;17.948;2024-02-28T19:57:43;3.10;99.90
18593;DHT22;9426;54.118;17.948;2024-02-28T20:03:07;3.00;99.90
18593;DHT22;9426;54.118;17.948;2024-02-28T20:08:31;3.00;99.90
18593;DHT22;9426;54.118;17.948;2024-02-28T20:13:57;3.00;99.90
18593;DHT22;9426;54.118;17.948;2024-02-28T20:19:20;3.00;99.90
18593;DHT22;9426;54.118;17.948;2024-02-28T20:24:44;3.00;99.90
18593;DHT22;9426;54.118;17.948;2024-02-28T20:30:11;2.90;99.90
18593;DHT22;9426;54.118;17.948;2024-02-28T20:35:38;2.80;99.90
18593;DHT22;9426;54.118;17.948;2024-02-28T20:41:03;2.80;99.90
18593;DHT22;9426;54.118;17.948;2024-02-28T20:46:28;2.90;99.90
18593;DHT22;9426;54.118;17.948;2024-02-28T20:51:51;2.80;99.90
18593;DHT22;9426;54.118;17.948;2024-02-28T20:57:17;2.70;99.90
18593;DHT22;9426;54.118;17.948;2024-02-28T21:02:42;2.50;99.90
18593;DHT22;9426;54.118;17.948;2024-02-28T21:08:06;2.70;99.90
18593;DHT22;9426;54.118;17.948;2024-02-28T21:13:32;2.60;99.90
18593;DHT22;9426;54.118;17.948;2024-02-28T21:18:57;2.70;99.90
18593;DHT22;9426;54.118;17.948;2024-02-28T21:24:21;2.70;99.90
18593;DHT22;9426;54.118;17.948;2024-02-28T21:29:48;1.70;99.90
18593;DHT22;9426;54.118;17.948;2024-02-28T21:35:16;2.60;99.90
18593;DHT22;9426;54.118;17.948;2024-02-28T21:40:40;2.60;99.90
18593;DHT22;9426;54.118;17.948;2024-02-28T21:46:04;2.60;99.90
18593;DHT22;9426;54.118;17.948;2024-02-28T21:51:29;2.60;99.90
18593;DHT22;9426;54.118;17.948;2024-02-28T21:56:53;2.60;99.90
18593;DHT22;9426;54.118;17.948;2024-02-28T22:02:17;2.50;99.90
18593;DHT22;9426;54.118;17.948;2024-02-28T22:07:42;2.50;99.90
18593;DHT22;9426;54.118;17.948;2024-02-28T22:13:06;2.50;99.90
18593;DHT22;9426;54.118;17.948;2024-02-28T22:18:31;2.50;99.90
18593;DHT22;9426;54.118;17.948;2024-02-28T22:23:56;2.50;99.90
18593;DHT22;9426;54.118;17.948;2024-02-28T22:29:20;2.50;99.90
18593;DHT22;9426;54.118;17.948;2024-02-28T22:34:44;2.50;99.90
18593;DHT22;9426;54.118;17.948;2024-02-28T22:40:10;2.50;99.90
18593;DHT22;9426;54.118;17.948;2024-02-28T22:45:35;2.50;99.90
18593;DHT22;9426;54.118;17.948;2024-02-28T22:51:00;2.40;99.90
18593;DHT22;9426;54.118;17.948;2024-02-28T22:56:25;2.40;99.90
18593;DHT22;9426;54.118;17.948;2024-02-28T23:01:48;2.50;99.90
18593;DHT22;9426;54.118;17.948;2024-02-28T23:07:11;2.50;99.90
18593;DHT22;9426;54.118;17.948;2024-02-28T23:12:37;2.50;99.90
18593;DHT22;9426;54.118;17.948;2024-02-28T23:18:03;2.40;99.90
18593;DHT22;9426;54.118;17.948;2024-02-28T23:23:26;2.40;99.90
18593;DHT22;9426;54.118;17.948;2024-02-28T23:28:51;2.50;99.90
18593;DHT22;9426;54.118;17.948;2024-02-28T23:34:14;2.50;99.90
18593;DHT22;9426;54.118;17.948;2024-02-28T23:39:39;2.40;99.90
18593;DHT22;9426;54.118;17.948;2024-02-28T23:45:05;2.40;99.90
18593;DHT22;9426;54.118;17.948;2024-02-28T23:50:30;2.40;99.90
18593;DHT22;9426;54.118;17.948;2024-02-28T23:55:55;2.40;99.90
